Stations météo

réclame
Mon MeteoGroup
Kahler Asten, Allemagne (10427): Température de l'air & dewpoint: 05.12.2017 23:00:00 - 11.12.2017 23:00:00 (CET)Kahler Asten, Allemagne (10427): Température de l'air 5cm & Température de l'air -5cm: 05.12.2017 23:00:00 - 11.12.2017 23:00:00 (CET)Kahler Asten, Allemagne (10427): Température de l'air -20cm & Température de l'air -100cm: 05.12.2017 23:00:00 - 11.12.2017 23:00:00 (CET)Kahler Asten, Allemagne (10427): Vitesse du vent & gusts: 05.12.2017 23:00:00 - 11.12.2017 23:00:00 (CET)Kahler Asten, Allemagne (10427): Direction du vent: 05.12.2017 23:00:00 - 11.12.2017 23:00:00 (CET)Kahler Asten, Allemagne (10427): reduced air pressure: 05.12.2017 23:00:00 - 11.12.2017 23:00:00 (CET)Kahler Asten, Allemagne (10427): visibility: 05.12.2017 23:00:00 - 11.12.2017 23:00:00 (CET)Kahler Asten, Allemagne (10427): Ensoleillement: 05.12.2017 23:00:00 - 11.12.2017 23:00:00 (CET)Kahler Asten, Allemagne (10427): Quantités de précipitations: 05.12.2017 23:00:00 - 11.12.2017 23:00:00 (CET)
Date & Time tt [°C] td [°C] tt 5cm [°C] tt -5cm [°C] tt -20cm [°C] tt -100cm [°C] ff [km/h] ff [knt] fx [km/h] fx [knt] dd ppp [hPa] vv [km] sd [min] rr [mm]
11.12.2017 23:00:00 1,5 1,1 0,0 0,4 0,9 4,0 43 23 60 33 SSW - 0,4 0 1,1
11.12.2017 22:00:00 2,0 1,6 0,0 0,4 1,0 4,0 39 21 56 30 S - 7 0 0,0
11.12.2017 21:00:00 2,1 1,7 0,0 0,4 1,0 4,2 37 20 58 32 S - 15 0 0,0
11.12.2017 20:00:00 2,0 1,7 0,0 0,5 1,1 4,3 32 18 58 32 S - 0,9 0 0,0
11.12.2017 19:00:00 2,0 1,7 0,0 0,5 1,2 4,3 34 18 48 26 S - 0,3 0 0,0
11.12.2017 18:00:00 1,7 1,4 0,0 0,5 1,2 4,3 29 16 43 23 S - 0,1 0 0,0
11.12.2017 17:00:00 1,3 1,0 0,0 0,5 1,2 4,3 28 15 48 26 S - 0,1 0 0,0
11.12.2017 16:00:00 1,0 0,6 0,0 0,5 1,2 4,3 25 14 46 25 SSE - 70 0 0,1
11.12.2017 15:00:00 0,8 0,5 0,0 0,5 1,2 4,3 28 15 47 26 SSW - 0,2 0 1,1
11.12.2017 14:00:00 0,0 -0,1 0,0 0,5 1,2 4,3 26 14 43 23 SSE - 0,3 0 2,3
11.12.2017 13:00:00 -0,2 -0,6 0,0 0,5 1,2 4,3 33 18 53 29 ESE - 0,1 0 2,2
11.12.2017 12:00:00 -0,9 -1,3 0,0 0,5 1,2 4,3 37 20 50 27 ESE - 0,2 0 2,0
11.12.2017 11:00:00 -1,3 -1,7 0,0 0,5 1,2 4,3 24 13 38 20 ESE - 0,1 0 0,7
11.12.2017 10:00:00 -1,5 -1,9 0,0 0,5 1,2 4,3 20 11 27 14 ESE - 0,1 0 0,2
11.12.2017 09:00:00 -1,7 -2,1 0,0 0,5 1,2 4,3 19 11 29 16 SE - 0,1 0 0,0
11.12.2017 08:00:00 -2,0 -2,5 0,0 0,5 1,2 4,3 16 9 20 11 SE - 0,1 0 0,0
11.12.2017 07:00:00 -2,1 -2,6 0,0 0,5 1,2 4,3 14 8 29 15 W - 0,1 0 0,0
11.12.2017 06:00:00 -2,0 -2,5 0,0 0,5 1,2 4,3 22 12 47 26 WSW - 0,2 0 0,0
11.12.2017 05:00:00 -2,0 -2,5 0,0 0,5 1,2 4,3 35 19 57 31 W - 0,2 0 0,0
11.12.2017 04:00:00 -2,0 -2,5 0,0 0,5 1,2 4,3 43 23 65 35 W - 0,4 0 0,0
11.12.2017 03:00:00 -1,4 -1,9 0,0 0,5 1,2 4,3 42 23 72 39 W - 0,1 0 0,0
11.12.2017 02:00:00 -1,0 -1,4 0,0 0,5 1,2 4,3 44 24 74 40 W - 0,1 0 0,3
11.12.2017 01:00:00 -0,3 -0,8 0,0 0,5 1,2 4,3 48 26 100 54 W - 7 0 0,8
11.12.2017 00:00:00 0,2 -0,2 0,0 0,5 1,2 4,3 46 25 91 49 WSW 1141,0 0,7 0 0,2
10.12.2017 23:00:00 0,3 -0,2 0,0 0,5 1,2 4,3 55 30 88 48 SW 1132,0 29 0 0,1
10.12.2017 22:00:00 0,3 -0,1 0,0 0,5 1,2 4,3 59 32 84 46 SW 1130,0 3,2 0 0,2
10.12.2017 21:00:00 0,0 -0,2 0,0 0,5 1,2 4,3 56 31 90 48 SW 1133,0 0,4 0 0,3
10.12.2017 20:00:00 -0,1 -0,4 0,0 0,5 1,2 4,3 48 26 80 43 SSW 1134,0 0,3 0 0,1
10.12.2017 19:00:00 -1,0 -1,4 0,0 0,5 1,2 4,3 48 26 70 38 SSW 1133,0 0,2 0 0,4
10.12.2017 18:00:00 -3,1 -3,7 0,0 0,5 1,2 4,3 37 20 66 35 SSW 1131,0 0,3 0 0,6
10.12.2017 17:00:00 -5,0 -5,9 0,0 0,5 1,2 4,3 35 19 57 31 S 1130,0 0,6 0 0,1
10.12.2017 16:00:00 -5,7 -6,8 0,0 0,5 1,2 4,3 49 26 71 38 S 1131,0 0,7 0 0,7
10.12.2017 15:00:00 -5,8 -7,0 0,0 0,5 1,2 4,3 54 29 77 42 SSE 1138,0 0,2 0 1,8
10.12.2017 14:00:00 -5,5 -6,7 0,0 0,5 1,2 4,3 54 29 76 41 SSE - 0,1 0 2,0
10.12.2017 13:00:00 -5,3 -6,4 0,0 0,5 1,2 4,3 36 19 55 30 SSE - 0,3 0 0,7
10.12.2017 12:00:00 -5,1 -6,0 0,0 0,5 1,2 4,3 29 16 52 28 SSE - 0,2 0 0,0
10.12.2017 11:00:00 -4,9 -5,8 0,0 0,5 1,1 4,3 27 14 41 22 SSE - 0,1 0 0,0
10.12.2017 10:00:00 -4,8 -5,7 0,0 0,5 1,1 4,3 32 17 51 28 S - 0,2 0 0,0
10.12.2017 09:00:00 -4,7 -5,6 0,0 0,5 1,1 4,3 38 20 51 28 S - 0,4 0 0,0
10.12.2017 08:00:00 -4,7 -5,6 0,0 0,5 1,1 4,3 24 13 45 25 SSW - 0,6 0 0,0
10.12.2017 07:00:00 -4,6 -5,5 0,0 0,5 1,1 4,3 28 15 46 25 SSW - 0,2 0 0,0
10.12.2017 06:00:00 -4,7 -5,5 0,0 0,5 1,1 4,3 27 15 42 23 SSW - 0,2 0 0,3
10.12.2017 05:00:00 -4,8 -5,7 0,0 0,5 1,1 4,3 26 14 44 24 SSW - 1,2 0 0,0
10.12.2017 04:00:00 -4,7 -5,7 0,0 0,5 1,1 4,3 30 16 46 25 SW - 0,6 0 0,0
10.12.2017 03:00:00 -4,7 -5,6 0,0 0,5 1,1 4,3 31 17 59 32 SW - 6 0 0,0
10.12.2017 02:00:00 -4,6 -5,6 0,0 0,5 1,1 4,3 35 19 54 29 SW - 8 0 0,0
10.12.2017 01:00:00 -4,8 -5,7 0,0 0,5 1,1 4,3 36 19 56 31 SW - 2,7 0 0,0
10.12.2017 00:00:00 -5,1 -6,1 0,0 0,5 1,1 4,3 32 17 52 28 SW - 12 0 0,0
09.12.2017 23:00:00 -5,1 -6,1 0,0 0,5 1,1 4,3 29 16 46 25 WSW - 7 0 0,0
09.12.2017 22:00:00 -5,1 -6,1 0,0 0,5 1,1 4,3 24 13 48 26 WSW - 12 0 0,0
09.12.2017 21:00:00 -4,7 -5,7 0,0 0,5 1,1 4,3 29 15 55 30 WSW - 5 0 0,0
09.12.2017 20:00:00 -4,4 -5,4 0,0 0,4 1,1 4,3 33 18 61 33 WSW - 3,1 0 0,0
09.12.2017 19:00:00 -4,1 -4,9 0,0 0,4 1,1 4,3 38 21 60 32 WSW - 0,2 0 0,1
09.12.2017 18:00:00 -3,7 -4,4 0,0 0,4 1,1 4,3 40 22 62 34 W - 0,1 0 0,1
09.12.2017 17:00:00 -3,5 -4,2 0,0 0,4 1,1 4,3 39 21 56 30 W - 0,1 0 0,6
09.12.2017 16:00:00 -3,6 -4,4 0,0 0,4 1,1 4,3 37 20 49 27 W - 0,4 0 0,8
09.12.2017 15:00:00 -3,7 -4,5 0,0 0,4 1,1 4,3 33 18 49 26 W - 0,4 0 0,5
09.12.2017 14:00:00 -4,0 -4,9 0,0 0,4 1,0 4,3 32 17 46 25 W - 0,8 0 0,6
09.12.2017 13:00:00 -4,2 -5,1 0,0 0,4 1,0 4,3 29 16 55 30 W - 0,9 0 0,6
09.12.2017 12:00:00 -4,5 -5,3 0,0 0,4 1,0 4,3 36 19 54 29 W - 0,5 0 0,3
09.12.2017 11:00:00 -4,7 -5,5 0,0 0,4 1,0 4,3 37 20 60 32 W - 0,2 0 0,2
09.12.2017 10:00:00 -4,9 -5,8 0,0 0,4 1,0 4,3 40 22 68 37 W - 0,6 0 0,5
09.12.2017 09:00:00 -5,1 -6,0 0,0 0,4 1,0 4,3 44 24 69 37 WSW - 0,3 0 0,0
09.12.2017 08:00:00 -5,1 -6,0 0,0 0,4 1,0 4,3 43 23 69 37 W - 0,9 0 0,0
09.12.2017 07:00:00 -5,2 -6,2 0,0 0,4 1,0 4,3 45 24 65 35 W - 6 0 0,0
09.12.2017 06:00:00 -4,6 -5,4 0,0 0,3 1,0 4,3 37 20 58 32 W - 0,4 0 0,0
09.12.2017 05:00:00 -4,6 -5,5 0,0 0,3 1,0 4,3 40 21 67 36 W - 4,3 0 0,0
09.12.2017 04:00:00 -4,4 -5,2 0,0 0,3 1,0 4,3 40 22 66 35 W - 0,2 0 0,0
09.12.2017 03:00:00 -4,0 -4,7 0,0 0,3 1,0 4,3 36 19 59 32 W - 0,3 0 0,1
09.12.2017 02:00:00 -4,0 -4,8 0,0 0,3 1,0 4,3 34 18 56 30 W - 0,5 0 0,2
09.12.2017 01:00:00 -4,0 -4,8 0,0 0,3 1,0 4,3 30 16 47 25 WNW - 1,0 0 1,7
09.12.2017 00:00:00 -4,2 -5,1 0,0 0,3 1,0 4,3 37 20 56 31 W - 0,2 0 2,8
08.12.2017 23:00:00 -4,3 -5,2 0,0 0,3 1,0 4,3 39 21 58 32 WSW - 0,3 0 0,6
08.12.2017 22:00:00 -4,4 -5,3 0,0 0,3 1,0 4,3 39 21 64 35 WSW - 7 0 0,0
08.12.2017 21:00:00 -4,3 -5,2 0,0 0,3 1,0 4,3 42 23 64 34 W - 6 0 0,0
08.12.2017 20:00:00 -4,0 -4,8 0,0 0,3 1,0 4,3 35 19 54 29 W - 1,2 0 0,0
08.12.2017 19:00:00 -3,7 -4,5 0,0 0,3 1,0 4,3 34 19 58 31 W - 7 0 0,3
08.12.2017 18:00:00 -3,4 -4,3 0,0 0,3 0,9 4,3 29 15 52 28 W - 0,6 0 0,8
08.12.2017 17:00:00 -3,5 -4,4 0,0 0,3 0,9 4,2 32 18 59 32 WNW - 5 0 0,4
08.12.2017 16:00:00 -3,0 -3,8 0,0 0,3 0,9 4,2 29 16 54 29 WNW - 1,4 0 1,9
08.12.2017 15:00:00 -2,8 -3,5 0,0 0,3 0,9 4,2 35 19 56 31 W - 0,5 0 1,0
08.12.2017 14:00:00 -2,8 -3,5 0,0 0,3 0,9 4,2 39 21 59 32 W - 1,5 0 0,8
08.12.2017 13:00:00 -2,8 -3,5 0,0 0,3 0,9 4,2 31 17 59 32 WSW - 0,7 0 0,1
08.12.2017 12:00:00 -2,9 -3,6 0,0 0,3 0,9 4,2 35 19 72 39 WSW - 9 0 0,1
08.12.2017 11:00:00 -2,8 -3,5 0,0 0,3 0,9 4,1 34 18 60 32 W - 5 0 0,9
08.12.2017 10:00:00 -2,4 -3,3 0,0 0,3 0,9 4,1 27 15 53 29 WSW - 7 0 0,0
08.12.2017 09:00:00 -2,4 -3,4 0,0 0,3 0,9 4,1 34 18 62 34 W - 9 0 0,0
08.12.2017 08:00:00 -2,1 -3,0 0,0 0,3 0,9 4,0 34 18 67 36 W - 4,5 0 0,7
08.12.2017 07:00:00 -1,3 -1,8 0,0 0,2 0,9 4,0 34 19 67 36 W - 0,2 0 1,2
08.12.2017 06:00:00 -0,8 -1,4 0,0 0,2 0,9 3,8 36 20 63 34 WSW - 0,2 0 0,1
08.12.2017 05:00:00 -0,4 -0,8 0,0 0,2 0,9 3,7 33 18 56 30 W - 0,2 0 0,9
08.12.2017 04:00:00 -0,1 -0,4 0,0 0,2 0,8 3,7 25 13 51 28 W - 0,2 0 1,6
08.12.2017 03:00:00 0,1 -0,2 0,0 0,2 0,8 3,7 31 17 48 26 W - 0,2 0 0,4
08.12.2017 02:00:00 0,5 0,1 0,0 0,2 0,8 3,8 31 17 58 31 W - 11 0 0,2
08.12.2017 01:00:00 1,5 1,2 0,0 0,2 0,8 3,9 35 19 61 33 W - 0,2 0 0,7
08.12.2017 00:00:00 1,2 0,9 0,0 0,3 0,8 3,9 36 20 68 37 WSW - 0,1 0 0,9
07.12.2017 23:00:00 1,2 0,9 0,0 0,3 0,9 4,0 40 21 61 33 WSW - 0,1 0 0,4
07.12.2017 22:00:00 0,6 0,4 0,0 0,3 1,0 4,2 36 19 68 37 SW - 0,1 0 1,5
07.12.2017 21:00:00 1,7 1,4 0,0 0,4 1,1 4,5 38 21 68 37 WSW - 0,1 0 1,3
07.12.2017 20:00:00 1,3 1,0 0,0 0,4 1,2 4,6 36 19 58 31 SW - 0,1 0 2,0
07.12.2017 19:00:00 0,3 0,0 0,0 0,4 1,1 4,6 33 18 52 28 SSW - 0,1 0 1,1
07.12.2017 18:00:00 0,2 -0,1 0,0 0,4 1,1 4,6 29 15 56 30 SW - 0,1 0 0,1
07.12.2017 17:00:00 -0,1 -0,3 0,0 0,4 1,1 4,6 31 17 60 33 SW - 0,1 0 0,0
07.12.2017 16:00:00 -0,8 -1,1 0,0 0,4 1,1 4,6 37 20 63 34 SSW - 0,1 0 0,1
07.12.2017 15:00:00 -1,3 -1,7 0,0 0,4 1,1 4,6 36 20 57 31 SW - 0,2 0 0,0
07.12.2017 14:00:00 -2,3 -2,7 0,0 0,4 1,1 4,6 40 21 55 30 SSW - 0,2 0 0,0
07.12.2017 13:00:00 -2,5 -2,9 0,0 0,4 1,1 4,6 34 19 55 30 SW - 0,3 0 0,0
07.12.2017 12:00:00 -2,9 -3,5 0,0 0,4 1,1 4,6 42 23 62 33 SW - 1,7 2 0,0
07.12.2017 11:00:00 -2,9 -4,3 0,0 0,4 1,1 4,6 41 22 59 32 SW - 15 39 0,0
07.12.2017 10:00:00 -2,7 -3,5 0,0 0,3 1,1 4,6 41 22 53 29 SSW - 4,2 1 0,0
07.12.2017 09:00:00 -2,5 -3,0 0,0 0,3 1,1 4,6 35 19 55 30 SSW - 2,0 0 0,0
07.12.2017 08:00:00 -2,2 -2,7 0,0 0,3 1,1 4,6 37 20 56 30 SSW - 0,5 0 0,0
07.12.2017 07:00:00 -1,9 -2,5 0,0 0,3 1,1 4,6 36 19 52 28 SW - 3,2 0 0,0
07.12.2017 06:00:00 -1,6 -2,4 0,0 0,3 1,1 4,6 36 19 56 31 SW - 8 0 0,0
07.12.2017 05:00:00 -1,3 -2,3 0,0 0,3 1,1 4,6 36 19 53 29 SW - 8 0 0,0
07.12.2017 04:00:00 -1,1 -2,2 0,0 0,3 1,1 4,6 39 21 53 29 SW - 9 0 0,0
07.12.2017 03:00:00 -1,0 -2,2 0,0 0,3 1,1 4,6 40 21 54 29 SW - 13 0 0,0
07.12.2017 02:00:00 -0,6 -1,9 0,0 0,3 1,1 4,6 43 23 54 29 SW - 18 0 0,0
07.12.2017 01:00:00 0,1 -0,5 0,0 0,3 1,1 4,6 38 21 54 29 SW - 7 0 0,0
07.12.2017 00:00:00 0,5 0,0 0,0 0,3 1,1 4,6 33 18 49 27 SW - 3,0 0 0,0
06.12.2017 23:00:00 0,6 0,2 0,0 0,3 1,1 4,6 23 12 37 20 WSW - 0,8 0 0,0
06.12.2017 22:00:00 0,8 0,4 0,0 0,3 1,1 4,6 22 12 39 21 WSW - 0,5 0 0,0
06.12.2017 21:00:00 1,0 0,6 0,0 0,3 1,1 4,6 23 12 40 21 WSW - 1,2 0 0,0
06.12.2017 20:00:00 1,0 0,3 0,0 0,3 1,1 4,6 25 14 43 23 W - 12 0 0,0
06.12.2017 19:00:00 1,0 0,2 0,0 0,3 1,1 4,6 29 15 46 25 W - 15 0 0,0
06.12.2017 18:00:00 0,9 0,1 0,0 0,3 1,1 4,6 28 15 51 28 W - 11 0 0,0
06.12.2017 17:00:00 0,8 -0,4 0,0 0,3 1,1 4,6 35 19 51 28 W - 24 0 0,0
06.12.2017 16:00:00 0,8 0,0 0,0 0,3 1,1 4,6 36 19 53 29 W - 18 0 0,0
06.12.2017 15:00:00 0,6 0,0 0,0 0,3 1,1 4,6 34 18 58 31 W - 14 0 0,0
06.12.2017 14:00:00 0,4 0,0 0,0 0,4 1,1 4,6 37 20 63 34 W - 6 0 0,0
06.12.2017 13:00:00 0,3 0,0 0,0 0,4 1,1 4,6 40 21 61 33 W - 1,4 0 0,0
06.12.2017 12:00:00 0,2 -0,2 0,0 0,4 1,1 4,6 38 20 58 32 W - 1,5 0 0,0
06.12.2017 11:00:00 0,2 -0,1 0,0 0,4 1,1 4,6 35 19 56 30 W - 0,1 0 0,0
06.12.2017 10:00:00 0,1 -0,2 0,0 0,4 1,1 4,6 34 18 55 30 W - 0,1 0 0,0
06.12.2017 09:00:00 0,0 -0,3 0,0 0,4 1,1 4,6 35 19 59 32 W - 0,1 0 0,0
06.12.2017 08:00:00 -0,1 -0,4 0,0 0,4 1,1 4,6 40 22 61 33 W - 0,1 0 0,0
06.12.2017 07:00:00 -0,3 -0,6 0,0 0,4 1,1 4,6 39 21 60 32 W - 0,1 0 0,0
06.12.2017 06:00:00 -0,4 -0,7 0,0 0,4 1,1 4,6 40 21 64 34 W - 0,1 0 0,0
06.12.2017 05:00:00 -0,4 -0,7 0,0 0,4 1,1 4,6 35 19 59 32 W - 0,1 0 0,0
06.12.2017 04:00:00 -0,4 -0,7 0,0 0,4 1,1 4,5 36 19 60 32 W - 0,1 0 0,0
06.12.2017 03:00:00 -0,3 -0,7 0,0 0,4 1,1 4,5 35 19 64 35 W - 0,4 0 0,0
06.12.2017 02:00:00 -0,2 -0,6 0,0 0,4 1,1 4,5 42 23 68 37 W - 2,8 0 0,0
06.12.2017 01:00:00 -0,1 -0,5 0,0 0,4 1,1 4,5 40 22 62 33 W - 2,9 0 0,0
06.12.2017 00:00:00 0,1 -0,2 0,0 0,4 1,1 4,5 34 18 56 30 W - 0,1 0 0,0
05.12.2017 23:00:00 0,3 0,0 0,0 0,4 1,1 4,5 30 16 61 33 W - 0,1 0 0,0

tt = Température de l'air
td = dewpoint
tt 5cm = Température de l'air 5cm
tt -5cm = Température de l'air -5cm
tt -20cm = Température de l'air -20cm
tt -100cm = Température de l'air -100cm
ff = Vitesse du vent
fx = gusts
dd = Direction du vent
ppp = reduced air pressure
vv = visibility
sd = Ensoleillement
rr = Quantités de précipitations

stations d'obs. à proximité